Pas de pilote en ligne...

Compagnie Fsx-France ! Un nouveau look pour votre VA, par : Julien & Co

 METAR ET TAF INFORMATION
METAR FOR CYZP
ADDS - METARS form results

(1956 UTC 27 September 2020)
Data provider http://aviationweather.gov/metar/data/
 
METAR text: CYZP 271932Z AUTO 15012KT 5SM -RA BR FEW012 BKN090 OVC120 15/15 A2984 RMK SLP105 DENSITY ALT 100FT
Conditions at: CYZP (SANDSPIT AIRPORT, BC, CA) observed 1932 UTC 27 September 2020
Temperature: 15.0°C (59°F)
Dewpoint: 15.0°C (59°F) [RH = 100%]
Pressure (altimeter): 29.84 inches Hg (1010.6 mb)
[Sea-level pressure: 1010.5 mb]
Winds: from the SSE (150 degrees) at 14 MPH (12 knots; 6.2 m/s)
Visibility: 5 miles ( 8 km)
Ceiling: 9000 feet AGL
Clouds: few clouds at 1200 feet AGL
broken clouds at 9000 feet AGL
overcast cloud deck at 12000 feet AGL
Weather: -RA BR  (light rain, mist)

METAR text: CYZP 271922Z AUTO 16012KT 9SM -RA SCT012 BKN027 BKN080 OVC092 15/15 A2984 RMK SLP105 DENSITY ALT 100FT
Conditions at: CYZP (SANDSPIT AIRPORT, BC, CA) observed 1922 UTC 27 September 2020
Temperature: 15.0°C (59°F)
Dewpoint: 15.0°C (59°F) [RH = 100%]
Pressure (altimeter): 29.84 inches Hg (1010.6 mb)
[Sea-level pressure: 1010.5 mb]
Winds: from the SSE (160 degrees) at 14 MPH (12 knots; 6.2 m/s)
Visibility: 9 miles (14 km)
Ceiling: 2700 feet AGL
Clouds: scattered clouds at 1200 feet AGL
broken clouds at 2700 feet AGL
broken clouds at 8000 feet AGL
overcast cloud deck at 9200 feet AGL
Weather: -RA  (light rain)

METAR text: CYZP 271908Z AUTO 15013KT 7SM -RA BKN012 BKN028 BKN070 OVC088 15/15 A2983 RMK SLP104 DENSITY ALT 100FT
Conditions at: CYZP (SANDSPIT AIRPORT, BC, CA) observed 1908 UTC 27 September 2020
Temperature: 15.0°C (59°F)
Dewpoint: 15.0°C (59°F) [RH = 100%]
Pressure (altimeter): 29.83 inches Hg (1010.2 mb)
[Sea-level pressure: 1010.4 mb]
Winds: from the SSE (150 degrees) at 15 MPH (13 knots; 6.7 m/s)
Visibility: 7 miles (11 km)
Ceiling: 1200 feet AGL
Clouds: broken clouds at 1200 feet AGL
broken clouds at 2800 feet AGL
broken clouds at 7000 feet AGL
overcast cloud deck at 8800 feet AGL
Weather: -RA  (light rain)

METAR text: CYZP 271900Z AUTO 14013KT 8SM BKN012 BKN026 BKN065 OVC090 15/15 A2984 RMK SLP105 DENSITY ALT 100FT
Conditions at: CYZP (SANDSPIT AIRPORT, BC, CA) observed 1900 UTC 27 September 2020
Temperature: 15.0°C (59°F)
Dewpoint: 15.0°C (59°F) [RH = 100%]
Pressure (altimeter): 29.84 inches Hg (1010.6 mb)
[Sea-level pressure: 1010.5 mb]
Winds: from the SE (140 degrees) at 15 MPH (13 knots; 6.7 m/s)
Visibility: 8 miles (13 km)
Ceiling: 1200 feet AGL
Clouds: broken clouds at 1200 feet AGL
broken clouds at 2600 feet AGL
broken clouds at 6500 feet AGL
overcast cloud deck at 9000 feet AGL
Weather: no significant weather observed at this time

Forecast for: CYZP (SANDSPIT AIRPORT, BC, CA)
Text: TAF CYZP 271844Z 2719/2807 14015G25KT P6SM -RA SCT020 OVC050
Forecast period: 1900 to 2000 UTC 27 September 2020
Forecast type: FROM: standard forecast or significant change
Winds: from the SE (140 degrees) at 17 MPH (15 knots; 7.7 m/s)
gusting to 29 MPH (25 knots; 12.9 m/s)
Visibility: 6 or more miles (10+ km)
Ceiling: 5000 feet AGL
Clouds: scattered clouds at 2000 feet AGL
overcast cloud deck at 5000 feet AGL
Weather: -RA  (light rain)
Text: TEMPO 2719/2807 5SM -RA BR OVC020
Forecast period: 1900 UTC 27 September 2020 to 0700 UTC 28 September 2020
Forecast type: TEMPORARY: The following changes expected for less than half the time period
Visibility: 5 miles (8 km)
Ceiling: 2000 feet AGL
Clouds: overcast cloud deck at 2000 feet AGL
Weather: -RA BR  (light rain, mist)
Text: BECMG 2720/2722 23015G25KT RMK FCST BASED ON AUTO OBS. NXT FCST BY 280100Z
Forecast period: 2000 UTC 27 September 2020 to 0700 UTC 28 September 2020
Forecast type: BECOMING: Conditions expected to become as follows by 2200 UTC 27 September 2020
Winds: from the SW (230 degrees) at 17 MPH (15 knots; 7.7 m/s)
gusting to 29 MPH (25 knots; 12.9 m/s)
Visibility: 6 or more miles (10+ km)
Ceiling: 5000 feet AGL
Clouds: scattered clouds at 2000 feet AGL
overcast cloud deck at 5000 feet AGL
Weather: -RA  (light rain)

 AÉROPORT DE AÉROPORT

 INFORMATIONS DE PISTE
Piste 12 Longueur de la piste 1561 m = 5120 ft Largeur de la piste 46 m = 150 ft
Élévation de la piste 17 ft Seuil de la piste déplacés 0 ft Runway heading 144
Piste 30 Longueur de la piste 1561 m = 5120 ft Largeur de la piste 46 m = 150 ft
Élévation de la piste 21 ft Seuil de la piste déplacés 0 ft Runway heading 324
 AÉROPORT FRÉQUENCES
Type A/G Nom TERRACE RD Féquence 122.3 MHZ
Type AWOS Nom AWOS Féquence 122.55 MHZ
Type CNTR Nom VANCOUVER Féquence 133.4 MHZ
Type RCO Nom PACIFIC RD Féquence 126.7 MHZ

 AIDES A LA NAVIGATION
Type VORTAC Nom Sandspit Féquence 114100 KHZ
Type NDB Nom Sandspit Féquence 368 KHZ
Type NDB Nom Dead Tree Féquence 248 KHZ